world map with BRX marked

BRX - Airport

This information may not be accurate or current and is not valid for navigation or flight planning. No warranty of fitness for any purpose is made or implied.

flag of Dominican Republic

Donate via PayPal

Additional information is available on the NEW Great Circle Mapper

Location
City:  Barahona, Barahona, Dominican Republic
Name:Marķa Montez International Airport
ICAO / IATA:MDBH / BRX

Details
Type:Airport (Aerodrome, Airfield)
Latitude:18°15'05"N (18.251464)
Longitude:71°07'13"W (-71.120399)
Datum:WGS 1984
Elevation:10 ft (3 m)
Runways:1
Longest:9843 × 148 ft (3000 × 45 m)

Time
Timezone:UTC+30:08 (DST+32:08)
Local Time:

Weather
METAR:MDBH  182300Z 13006KT 9999 FEW020 26/22 Q1016
TAF:MDBH  (expired)

Related Locations
Nearby:
Farthest:EXM: 12013 mi / 19333 km
Exmouth Gulf, WA, AU

Find:

   beyond  
but within

Other Information
Maps:
Sources:

  


 


Great Circle Mapper   Great Circle Mapper
Great Circle Mapper FAQ   Great Circle Mapper FAQ
  Karl's Home Page
KLS²   KLS² Home
   GC on Facebook
Airlines of the World   Airlines of the World
Donate via PayPal


Copyright © 2004-2018, Karl L. Swartz. All rights reserved.
All trademarks mentioned herein belong to their respective owners.

Please see credits for attribution and copyright information.

Karl Swartz <karl@kls2.com>
  Powered by FreeBSD
Valid HTML 4.01!
Labeled with ICRA
hCard Microformat
Geo Microformat